Etusivu
METAR-TAF:

METAR-TAF

Lentoasemat :

Clark’s Point, Alaska, Yhdysvallat

Leveyspiiri: 58-50-01N, Pituuspiiri: 158-31-46W, korkeus merenpinnasta: 24 m

Tämänhetkinen sää

Tämä raportti tehtiin 21 minuuttia sitten, kello 09.56 UTC
Tuuli 17 kn kaakosta puuskistuen 23 kn:hen
Lämpötila 11°C
Kosteus 100%
Ilmanpaine 1007 hPa
Näkyvyys: 16.1 km
Hajanaisia pilviä 1100 ft:n korkeudessa
Hajonneita pilviä 2100 ft:n korkeudessa
Pilvistä 6000 ft:n korkeudessa
heikkoa sadetta

METAR: PFCL 120956Z AUTO 14017G23KT 10SM -RA SCT011 BKN021 OVC060 11/11 A2973 RMK AO2 RAB0859 SLP061 P0002 T01110111 TSNO

Aika: 02:17 (10:17 UTC)


TAF: puuttuu

Säähavainnot ja -ennusteet yli 4000 lentoasemalta (METAR- ja TAF-raportit).

Käytössä olevat sääasemat on merkitty karttaan keltaisilla ja punaisilla pisteillä.

Aseta hiiri pisteen päälle nähdäksesi sääaseman nimen.

Klikkaa sitten nähdäksesi säähavainnot ja -ennusteet.

Kartan vaihtaminen: klikkaa mustalla rastilla varustettuja vihreitä pisteitä, niin voit zoomata sisään; viivalla varustettua vihreää pistettä, niin voit zoomata ulos tai vihreitä nuolia, niin pääset viereisille kartoille.


METAR-TAF: